createdAt,value
2017-10-13T00:00:47.804Z,95700.61
2017-10-13T00:03:16.152Z,95701.84
2017-10-13T00:05:44.491Z,95701.14
2017-10-13T00:08:12.871Z,95702.52
2017-10-13T00:10:41.216Z,95705.58
2017-10-13T00:13:09.559Z,95711.39
2017-10-13T00:15:37.914Z,95714.50
2017-10-13T00:18:06.267Z,95713.36
2017-10-13T00:20:34.630Z,95714.86
2017-10-13T00:23:02.979Z,95730.23
2017-10-13T00:25:31.327Z,95720.98
2017-10-13T00:27:59.707Z,95707.36
2017-10-13T00:30:28.239Z,95716.25
2017-10-13T00:32:56.588Z,95711.46
2017-10-13T00:35:24.960Z,95701.45
2017-10-13T00:37:53.303Z,95710.98
2017-10-13T00:40:21.656Z,95708.62
2017-10-13T00:42:50.000Z,95708.66
2017-10-13T00:45:18.342Z,95705.58
2017-10-13T00:47:46.700Z,95703.08
2017-10-13T00:50:15.074Z,95705.61
2017-10-13T00:52:43.423Z,95704.64
2017-10-13T00:55:11.777Z,95700.46
2017-10-13T00:57:40.141Z,95700.45
2017-10-13T01:00:08.512Z,95695.84
2017-10-13T01:02:36.855Z,95696.33
2017-10-13T01:05:05.203Z,95705.61
2017-10-13T01:07:33.548Z,95702.30
2017-10-13T01:10:02.465Z,95703.20
2017-10-13T01:12:30.838Z,95694.67
2017-10-13T01:14:59.184Z,95699.31
2017-10-13T01:17:27.536Z,95710.85
2017-10-13T01:19:55.910Z,95705.28
2017-10-13T01:22:24.270Z,95707.80
2017-10-13T01:24:52.606Z,95705.59
2017-10-13T01:27:20.955Z,95701.25
2017-10-13T01:29:49.308Z,95697.55
2017-10-13T01:32:17.650Z,95699.47
2017-10-13T01:34:46.005Z,95707.17
2017-10-13T01:37:14.354Z,95702.95
2017-10-13T01:39:42.710Z,95709.71
2017-10-13T01:42:11.069Z,95713.66
2017-10-13T01:44:39.449Z,95711.95
2017-10-13T01:47:07.799Z,95711.63
2017-10-13T01:49:36.383Z,95708.13
2017-10-13T01:52:04.732Z,95708.92
2017-10-13T01:54:33.082Z,95709.89
2017-10-13T01:57:01.443Z,95714.15
2017-10-13T01:59:29.795Z,95709.38
2017-10-13T02:01:58.139Z,95706.56
2017-10-13T02:04:26.492Z,95715.27
2017-10-13T02:06:54.842Z,95714.38
2017-10-13T02:09:23.195Z,95716.00
2017-10-13T02:11:51.557Z,95713.42
2017-10-13T02:14:19.976Z,95721.98
2017-10-13T02:16:48.324Z,95721.16
2017-10-13T02:19:16.677Z,95712.53
2017-10-13T02:21:45.031Z,95714.97
2017-10-13T02:24:13.388Z,95718.19
2017-10-13T02:26:41.731Z,95723.41
2017-10-13T02:29:10.071Z,95716.03
2017-10-13T02:31:38.447Z,95725.00
2017-10-13T02:34:06.811Z,95726.73
2017-10-13T02:36:35.168Z,95728.67
2017-10-13T02:39:03.518Z,95730.36
2017-10-13T02:41:31.876Z,95730.41
2017-10-13T02:44:00.256Z,95724.16
2017-10-13T02:46:28.619Z,95725.27
2017-10-13T02:48:56.963Z,95724.51
2017-10-13T02:51:25.315Z,95723.84
2017-10-13T02:53:53.667Z,95720.95
2017-10-13T02:56:22.030Z,95728.91
2017-10-13T02:58:50.386Z,95727.89
2017-10-13T03:01:18.747Z,95727.89
2017-10-13T03:03:47.096Z,95733.17
2017-10-13T03:06:15.463Z,95735.66
2017-10-13T03:08:43.810Z,95717.49
2017-10-13T03:11:12.244Z,95726.05
2017-10-13T03:13:40.591Z,95711.17
2017-10-13T03:16:09.303Z,95709.83
2017-10-13T03:18:37.652Z,95713.95
2017-10-13T03:21:06.036Z,95723.38
2017-10-13T03:23:34.379Z,95721.64
2017-10-13T03:26:02.732Z,95721.30
2017-10-13T03:28:31.088Z,95718.05
2017-10-13T03:30:59.455Z,95725.22
2017-10-13T03:33:27.803Z,95722.52
2017-10-13T03:35:56.159Z,95720.78
2017-10-13T03:38:24.539Z,95725.38
2017-10-13T03:40:52.883Z,95717.19
2017-10-13T03:43:21.235Z,95720.11
2017-10-13T03:45:49.592Z,95716.41
2017-10-13T03:48:17.974Z,95719.19
2017-10-13T03:50:46.323Z,95724.60
2017-10-13T03:53:14.678Z,95715.02
2017-10-13T03:55:43.037Z,95714.15
2017-10-13T03:58:11.410Z,95718.22
2017-10-13T04:00:39.763Z,95707.25
2017-10-13T04:03:08.119Z,95704.42
2017-10-13T04:05:36.467Z,95701.26
2017-10-13T04:08:04.831Z,95698.27
2017-10-13T04:10:33.175Z,95710.03
2017-10-13T04:13:01.528Z,95705.54
2017-10-13T04:15:29.871Z,95702.61
2017-10-13T04:17:58.231Z,95702.20
2017-10-13T04:20:26.608Z,95705.66
2017-10-13T04:22:54.958Z,95708.63
2017-10-13T04:25:23.339Z,95710.44
2017-10-13T04:27:51.685Z,95708.30
2017-10-13T04:30:20.044Z,95710.55
2017-10-13T04:32:48.396Z,95722.31
2017-10-13T04:35:16.742Z,95715.00
2017-10-13T04:37:45.111Z,95711.06
2017-10-13T04:40:13.487Z,95696.72
2017-10-13T04:42:41.839Z,95702.55
2017-10-13T04:45:10.188Z,95703.41
2017-10-13T04:47:38.530Z,95701.99
2017-10-13T04:50:06.879Z,95703.42
2017-10-13T04:52:35.231Z,95707.12
2017-10-13T04:55:03.597Z,95703.57
2017-10-13T04:57:31.952Z,95708.41
2017-10-13T05:00:00.318Z,95707.51
2017-10-13T05:02:28.706Z,95713.19
2017-10-13T05:04:57.060Z,95719.86
2017-10-13T05:07:25.423Z,95722.68
2017-10-13T05:09:53.767Z,95719.77
2017-10-13T05:12:22.122Z,95715.61
2017-10-13T05:14:50.470Z,95709.35
2017-10-13T05:17:18.831Z,95712.86
2017-10-13T05:19:47.183Z,95713.14
2017-10-13T05:22:15.526Z,95714.61
2017-10-13T05:24:43.885Z,95710.22
2017-10-13T05:27:12.236Z,95704.77
2017-10-13T05:29:40.583Z,95703.75
2017-10-13T05:32:08.943Z,95711.06
2017-10-13T05:34:37.317Z,95713.98
2017-10-13T05:37:05.667Z,95709.77
2017-10-13T05:39:34.023Z,95708.11
2017-10-13T05:42:02.373Z,95708.80
2017-10-13T05:44:30.724Z,95715.59
2017-10-13T05:46:59.073Z,95713.01
2017-10-13T05:49:27.450Z,95723.80
2017-10-13T05:51:55.807Z,95718.56
2017-10-13T05:54:24.155Z,95723.92
2017-10-13T05:56:52.552Z,95728.47
2017-10-13T05:59:20.907Z,95723.78
2017-10-13T06:01:49.263Z,95725.83
2017-10-13T06:04:17.648Z,95731.05
2017-10-13T06:06:46.515Z,95733.78
2017-10-13T06:09:14.869Z,95740.33
2017-10-13T06:11:43.223Z,95744.81
2017-10-13T06:14:11.575Z,95751.86
2017-10-13T06:16:39.959Z,95745.26
2017-10-13T06:19:08.333Z,95751.92
2017-10-13T06:21:36.686Z,95762.63
2017-10-13T06:24:05.043Z,95751.83
2017-10-13T06:26:33.403Z,95764.91
2017-10-13T06:29:01.754Z,95759.20
2017-10-13T06:31:30.116Z,95754.28
2017-10-13T06:33:58.476Z,95752.16
2017-10-13T06:36:26.831Z,95758.02
2017-10-13T06:38:55.188Z,95758.23
2017-10-13T06:41:23.558Z,95754.33
2017-10-13T06:43:51.908Z,95765.23
2017-10-13T06:46:20.272Z,95767.61
2017-10-13T06:48:48.628Z,95779.35
2017-10-13T06:51:16.988Z,95771.23
2017-10-13T06:53:45.347Z,95767.34
2017-10-13T06:56:13.703Z,95764.25
2017-10-13T06:58:42.064Z,95769.31
2017-10-13T07:01:10.415Z,95782.36
2017-10-13T07:03:38.762Z,95789.63
2017-10-13T07:06:07.124Z,95793.57
2017-10-13T07:08:35.478Z,95789.60
2017-10-13T07:11:03.832Z,95795.32
2017-10-13T07:13:32.225Z,95798.89
2017-10-13T07:16:00.588Z,95794.99
2017-10-13T07:18:28.963Z,95807.45
2017-10-13T07:20:57.323Z,95798.39
2017-10-13T07:23:25.689Z,95789.56
2017-10-13T07:25:54.045Z,95792.26
2017-10-13T07:28:22.398Z,95787.52
2017-10-13T07:30:50.776Z,95786.60
2017-10-13T07:33:19.133Z,95784.97
2017-10-13T07:35:47.492Z,95793.27
2017-10-13T07:38:15.854Z,95795.44
2017-10-13T07:40:44.238Z,95794.42
2017-10-13T07:43:12.596Z,95793.48
2017-10-13T07:45:40.953Z,95801.72
2017-10-13T07:48:09.312Z,95795.48
2017-10-13T07:50:37.664Z,95796.04
2017-10-13T07:53:06.054Z,95798.59
2017-10-13T07:55:34.396Z,95805.30
2017-10-13T07:58:02.784Z,95809.14
2017-10-13T08:00:31.133Z,95802.63
2017-10-13T08:02:59.496Z,95811.38
2017-10-13T08:05:27.847Z,95816.34
2017-10-13T08:07:56.195Z,95816.03
2017-10-13T08:10:25.174Z,95802.48
2017-10-13T08:12:53.530Z,95813.17
2017-10-13T08:15:21.892Z,95814.99
2017-10-13T08:17:50.252Z,95807.97
2017-10-13T08:20:18.646Z,95813.40
2017-10-13T08:22:47.005Z,95821.63
2017-10-13T08:25:15.361Z,95827.79
2017-10-13T08:27:43.717Z,95829.31
2017-10-13T08:30:12.071Z,95829.88
2017-10-13T08:32:40.426Z,95823.63
2017-10-13T08:35:08.788Z,95825.23
2017-10-13T08:37:37.167Z,95825.62
2017-10-13T08:40:05.520Z,95832.27
2017-10-13T08:42:33.863Z,95837.19
2017-10-13T08:45:02.213Z,95833.59
2017-10-13T08:47:30.579Z,95840.94
2017-10-13T08:49:58.945Z,95848.75
2017-10-13T08:52:27.291Z,95843.84
2017-10-13T08:54:55.643Z,95844.44
2017-10-13T08:57:24.295Z,95849.45
2017-10-13T08:59:52.639Z,95841.13
2017-10-13T09:02:20.980Z,95849.27
2017-10-13T09:04:49.331Z,95850.16
2017-10-13T09:07:17.675Z,95855.37
2017-10-13T09:09:46.026Z,95846.87
2017-10-13T09:12:14.416Z,95860.98
2017-10-13T09:14:42.752Z,95857.59
2017-10-13T09:17:11.091Z,95856.89
2017-10-13T09:19:39.444Z,95866.31
2017-10-13T09:22:08.711Z,95859.34
2017-10-13T09:24:37.059Z,95861.03
2017-10-13T09:27:05.404Z,95861.94
2017-10-13T09:29:33.757Z,95857.58
2017-10-13T09:32:02.255Z,95850.94
2017-10-13T09:34:30.604Z,95850.45
2017-10-13T09:36:58.967Z,95843.62
2017-10-13T09:39:27.303Z,95842.59
2017-10-13T09:41:55.660Z,95845.72
2017-10-13T09:44:24.055Z,95838.17
2017-10-13T09:46:52.395Z,95834.05
2017-10-13T09:49:20.746Z,95836.03
2017-10-13T09:51:49.111Z,95828.00
2017-10-13T09:54:17.451Z,95822.32
2017-10-13T09:56:45.784Z,95822.39
2017-10-13T09:59:14.132Z,95832.66
2017-10-13T10:01:42.833Z,95827.88
2017-10-13T10:04:11.172Z,95839.80
2017-10-13T10:06:39.511Z,95835.33
2017-10-13T10:09:07.847Z,95839.36
2017-10-13T10:11:36.211Z,95833.73
2017-10-13T10:14:04.580Z,95834.35
2017-10-13T10:16:32.924Z,95843.44
2017-10-13T10:19:01.275Z,95842.44
2017-10-13T10:21:29.627Z,95838.14
2017-10-13T10:23:57.968Z,95853.48
2017-10-13T10:26:26.318Z,95852.76
2017-10-13T10:28:54.657Z,95849.84
2017-10-13T10:31:22.995Z,95856.69
2017-10-13T10:33:51.339Z,95852.30
2017-10-13T10:36:19.687Z,95859.70
2017-10-13T10:38:48.035Z,95863.41
2017-10-13T10:41:16.859Z,95871.53
2017-10-13T10:43:45.203Z,95885.47
2017-10-13T10:46:13.534Z,95885.92
2017-10-13T10:48:41.878Z,95881.72
2017-10-13T10:51:10.279Z,95891.16
2017-10-13T10:53:38.616Z,95884.33
2017-10-13T10:56:06.953Z,95892.85
2017-10-13T10:58:35.304Z,95893.39
2017-10-13T11:01:03.651Z,95887.39
2017-10-13T11:03:32.024Z,95887.45
2017-10-13T11:06:01.264Z,95892.59
2017-10-13T11:08:29.611Z,95881.95
2017-10-13T11:10:57.955Z,95896.86
2017-10-13T11:13:26.323Z,95894.20
2017-10-13T11:15:54.675Z,95894.19
2017-10-13T11:18:23.015Z,95898.54
2017-10-13T11:20:51.357Z,95895.77
2017-10-13T11:23:19.695Z,95895.27
2017-10-13T11:25:48.039Z,95899.84
2017-10-13T11:28:16.383Z,95897.58
2017-10-13T11:30:44.756Z,95896.19
2017-10-13T11:33:13.104Z,95891.88
2017-10-13T11:35:41.454Z,95898.00
2017-10-13T11:38:09.800Z,95895.22
2017-10-13T11:40:38.149Z,95895.93
2017-10-13T11:43:06.490Z,95898.11
2017-10-13T11:45:34.839Z,95904.64
2017-10-13T11:48:03.183Z,95896.81
2017-10-13T11:50:31.558Z,95889.86
2017-10-13T11:52:59.903Z,95893.91
2017-10-13T11:55:28.259Z,95897.05
2017-10-13T11:57:56.599Z,95893.48
2017-10-13T12:00:24.951Z,95887.25
2017-10-13T12:02:53.291Z,95894.32
2017-10-13T12:05:21.661Z,95893.05
2017-10-13T12:07:50.003Z,95894.01
2017-10-13T12:10:18.349Z,95890.80
2017-10-13T12:12:46.714Z,95890.88
2017-10-13T12:15:15.065Z,95889.30
2017-10-13T12:17:43.404Z,95887.88
2017-10-13T12:20:11.747Z,95896.75
2017-10-13T12:22:40.091Z,95895.80
2017-10-13T12:25:08.436Z,95888.58
2017-10-13T12:27:36.775Z,95887.34
2017-10-13T12:30:05.124Z,95890.25
2017-10-13T12:32:33.480Z,95878.31
2017-10-13T12:35:01.839Z,95883.55
2017-10-13T12:37:30.180Z,95881.78
2017-10-13T12:39:58.531Z,95874.56
2017-10-13T12:42:26.889Z,95880.48
2017-10-13T12:44:55.256Z,95878.75
2017-10-13T12:47:23.597Z,95872.66
2017-10-13T12:49:51.939Z,95878.78
2017-10-13T12:52:20.280Z,95880.22
2017-10-13T12:54:48.646Z,95870.78
2017-10-13T12:57:17.181Z,95876.38
2017-10-13T12:59:45.533Z,95880.17
2017-10-13T13:02:13.903Z,95871.81
2017-10-13T13:04:42.530Z,95880.98
2017-10-13T13:07:10.864Z,95874.33
2017-10-13T13:09:39.236Z,95874.11
2017-10-13T13:12:07.587Z,95871.51
2017-10-13T13:14:35.927Z,95873.29
2017-10-13T13:17:04.266Z,95874.05
2017-10-13T13:19:32.603Z,95876.55
2017-10-13T13:22:01.123Z,95874.61
2017-10-13T13:24:29.536Z,95873.03
2017-10-13T13:26:57.881Z,95872.75
2017-10-13T13:29:26.225Z,95874.86
2017-10-13T13:31:54.567Z,95884.08
2017-10-13T13:34:22.911Z,95877.84
2017-10-13T13:36:51.266Z,95880.97
2017-10-13T13:39:20.475Z,95880.45
2017-10-13T13:41:48.823Z,95885.55
2017-10-13T13:44:17.176Z,95880.69
2017-10-13T13:46:45.551Z,95881.93
2017-10-13T13:49:13.902Z,95879.58
2017-10-13T13:51:42.244Z,95878.67
2017-10-13T13:54:10.591Z,95874.81
2017-10-13T13:56:38.942Z,95873.16
2017-10-13T13:59:07.328Z,95868.84
2017-10-13T14:01:35.694Z,95867.41
2017-10-13T14:04:04.050Z,95862.43
2017-10-13T14:06:32.400Z,95854.08
2017-10-13T14:09:00.758Z,95864.29
2017-10-13T14:11:29.132Z,95859.58
2017-10-13T14:13:57.479Z,95858.28
2017-10-13T14:16:25.864Z,95850.15
2017-10-13T14:18:54.258Z,95845.95
2017-10-13T14:21:22.612Z,95849.94
2017-10-13T14:23:50.993Z,95853.08
2017-10-13T14:26:19.340Z,95856.66
2017-10-13T14:28:47.687Z,95852.23
2017-10-13T14:31:16.053Z,95854.34
2017-10-13T14:33:44.410Z,95860.31
2017-10-13T14:36:12.766Z,95863.64
2017-10-13T14:38:41.120Z,95858.05
2017-10-13T14:41:09.466Z,95858.17
2017-10-13T14:43:37.833Z,95865.56
2017-10-13T14:46:06.211Z,95870.43
2017-10-13T14:48:34.567Z,95859.98
2017-10-13T14:51:02.915Z,95868.25
2017-10-13T14:53:31.273Z,95865.63
2017-10-13T14:55:59.626Z,95865.36
2017-10-13T14:58:27.978Z,95860.98
2017-10-13T15:00:56.327Z,95866.72
2017-10-13T15:03:24.690Z,95868.47
2017-10-13T15:05:53.053Z,95865.15
2017-10-13T15:08:21.391Z,95875.20
2017-10-13T15:10:49.752Z,95878.44
2017-10-13T15:13:18.111Z,95874.78
2017-10-13T15:15:46.483Z,95865.69
2017-10-13T15:18:14.841Z,95874.83
2017-10-13T15:20:43.189Z,95871.86
2017-10-13T15:23:11.635Z,95870.13
2017-10-13T15:25:46.573Z,95870.33
2017-10-13T15:28:20.516Z,95866.80
2017-10-13T15:30:54.492Z,95868.40
2017-10-13T15:33:28.324Z,95867.44
2017-10-13T15:36:02.291Z,95880.05
2017-10-13T15:38:36.070Z,95883.91
2017-10-13T15:41:09.988Z,95877.68
2017-10-13T15:43:43.836Z,95888.81
2017-10-13T15:46:17.735Z,95894.58
2017-10-13T15:48:46.091Z,95892.44
2017-10-13T15:51:19.964Z,95891.09
2017-10-13T15:53:48.320Z,95884.32
2017-10-13T15:56:16.675Z,95882.00
2017-10-13T15:58:45.049Z,95875.47
2017-10-13T16:01:13.401Z,95875.91
2017-10-13T16:03:41.761Z,95867.70
2017-10-13T16:06:10.115Z,95865.75
2017-10-13T16:08:38.467Z,95863.98
2017-10-13T16:11:06.831Z,95862.30
2017-10-13T16:13:35.449Z,95868.20
2017-10-13T16:16:03.808Z,95870.77
2017-10-13T16:18:32.157Z,95873.16
2017-10-13T16:21:00.525Z,95875.27
2017-10-13T16:23:29.051Z,95870.80
2017-10-13T16:25:57.628Z,95878.97
2017-10-13T16:28:25.988Z,95880.80
2017-10-13T16:30:54.347Z,95886.32
2017-10-13T16:33:22.704Z,95888.28
2017-10-13T16:35:51.064Z,95896.59
2017-10-13T16:38:19.422Z,95890.77
2017-10-13T16:40:47.791Z,95893.63
2017-10-13T16:43:16.147Z,95894.11
2017-10-13T16:45:44.530Z,95897.10
2017-10-13T16:48:12.888Z,95897.58
2017-10-13T16:50:41.244Z,95891.77
2017-10-13T16:53:09.612Z,95893.94
2017-10-13T16:55:37.969Z,95891.61
2017-10-13T16:58:06.731Z,95888.73
2017-10-13T17:00:35.158Z,95893.78
2017-10-13T17:03:03.515Z,95894.84
2017-10-13T17:05:31.875Z,95894.19
2017-10-13T17:08:00.241Z,95902.41
2017-10-13T17:10:28.598Z,95906.41
2017-10-13T17:12:56.990Z,95900.89
2017-10-13T17:15:25.355Z,95903.11
2017-10-13T17:17:53.715Z,95903.23
2017-10-13T17:20:22.113Z,95901.42
2017-10-13T17:22:50.476Z,95906.29
2017-10-13T17:25:18.845Z,95909.31
2017-10-13T17:27:47.249Z,95909.49
2017-10-13T17:30:15.626Z,95902.50
2017-10-13T17:32:44.007Z,95901.59
2017-10-13T17:35:12.367Z,95913.46
2017-10-13T17:37:40.774Z,95909.81
2017-10-13T17:40:09.127Z,95908.01
2017-10-13T17:42:37.543Z,95911.17
2017-10-13T17:45:05.908Z,95908.08
2017-10-13T17:47:34.264Z,95911.44
2017-10-13T17:50:02.653Z,95907.14
2017-10-13T17:52:31.011Z,95916.11
2017-10-13T17:54:59.377Z,95917.22
2017-10-13T17:57:27.761Z,95909.09
2017-10-13T17:59:56.125Z,95915.52
2017-10-13T18:02:24.504Z,95906.11
2017-10-13T18:04:52.855Z,95916.64
2017-10-13T18:07:21.219Z,95916.70
2017-10-13T18:09:49.602Z,95910.49
2017-10-13T18:12:17.966Z,95913.67
2017-10-13T18:14:46.324Z,95913.00
2017-10-13T18:17:14.791Z,95908.83
2017-10-13T18:19:43.180Z,95915.52
2017-10-13T18:22:11.546Z,95920.54
2017-10-13T18:24:39.937Z,95919.22
2017-10-13T18:27:08.290Z,95916.37
2017-10-13T18:29:36.691Z,95914.31
2017-10-13T18:32:05.044Z,95922.88
2017-10-13T18:34:33.426Z,95920.67
2017-10-13T18:37:01.815Z,95927.23
2017-10-13T18:39:30.259Z,95931.02
2017-10-13T18:41:59.071Z,95930.38
2017-10-13T18:44:27.428Z,95929.16
2017-10-13T18:46:55.830Z,95925.80
2017-10-13T18:49:24.195Z,95932.69
2017-10-13T18:51:52.556Z,95927.22
2017-10-13T18:54:20.965Z,95933.26
2017-10-13T18:56:49.319Z,95934.81
2017-10-13T18:59:17.676Z,95933.84
2017-10-13T19:01:46.072Z,95935.48
2017-10-13T19:04:14.443Z,95937.50
2017-10-13T19:06:42.929Z,95940.16
2017-10-13T19:09:11.379Z,95938.19
2017-10-13T19:11:39.746Z,95937.75
2017-10-13T19:14:08.107Z,95942.58
2017-10-13T19:16:36.488Z,95939.76
2017-10-13T19:19:04.875Z,95943.53
2017-10-13T19:21:33.230Z,95941.59
2017-10-13T19:24:01.623Z,95935.27
2017-10-13T19:26:29.987Z,95937.57
2017-10-13T19:28:58.367Z,95941.58
2017-10-13T19:31:26.760Z,95945.16
2017-10-13T19:33:55.517Z,95938.48
2017-10-13T19:36:23.920Z,95947.31
2017-10-13T19:38:52.279Z,95949.95
2017-10-13T19:41:20.668Z,95951.77
2017-10-13T19:43:49.037Z,95950.13
2017-10-13T19:46:19.273Z,95946.28
2017-10-13T19:48:47.872Z,95950.17
2017-10-13T19:51:16.232Z,95947.05
2017-10-13T19:53:44.621Z,95943.98
2017-10-13T19:56:13.175Z,95945.80
2017-10-13T19:58:41.572Z,95944.08
2017-10-13T20:01:09.944Z,95939.85
2017-10-13T20:03:38.535Z,95945.53
2017-10-13T20:06:07.178Z,95941.75
2017-10-13T20:08:36.280Z,95947.05
2017-10-13T20:11:04.741Z,95948.11
2017-10-13T20:13:33.112Z,95948.69
2017-10-13T20:16:01.552Z,95943.59
2017-10-13T20:18:30.323Z,95943.94
2017-10-13T20:20:58.680Z,95949.64
2017-10-13T20:23:27.039Z,95953.54
2017-10-13T20:25:55.395Z,95954.66
2017-10-13T20:28:23.760Z,95956.44
2017-10-13T20:30:52.115Z,95956.52
2017-10-13T20:33:20.478Z,95956.60
2017-10-13T20:35:48.835Z,95955.07
2017-10-13T20:38:17.213Z,95958.65
2017-10-13T20:40:45.573Z,95952.48
2017-10-13T20:43:13.927Z,95960.05
2017-10-13T20:45:42.286Z,95957.55
2017-10-13T20:48:10.644Z,95959.41
2017-10-13T20:50:38.999Z,95958.06
2017-10-13T20:53:07.363Z,95959.76
2017-10-13T20:55:35.735Z,95959.53
2017-10-13T20:58:04.091Z,95961.83
2017-10-13T21:00:32.449Z,95957.28
2017-10-13T21:03:00.816Z,95958.85
2017-10-13T21:05:29.323Z,95954.55
2017-10-13T21:07:57.683Z,95966.97
2017-10-13T21:10:26.474Z,95964.84
2017-10-13T21:12:54.940Z,95963.67
2017-10-13T21:15:23.384Z,95960.25
2017-10-13T21:17:51.747Z,95956.80
2017-10-13T21:20:20.105Z,95958.73
2017-10-13T21:22:48.556Z,95958.85
2017-10-13T21:25:16.919Z,95953.30
2017-10-13T21:27:45.306Z,95944.11
2017-10-13T21:30:13.660Z,95947.40
2017-10-13T21:32:42.047Z,95944.99
2017-10-13T21:35:10.469Z,95952.66
2017-10-13T21:37:38.823Z,95948.81
2017-10-13T21:40:07.195Z,95950.53
2017-10-13T21:42:35.590Z,95960.43
2017-10-13T21:45:03.939Z,95959.03
2017-10-13T21:47:32.348Z,95960.12
2017-10-13T21:50:00.695Z,95961.64
2017-10-13T21:52:29.047Z,95958.84
2017-10-13T21:54:57.430Z,95957.98
2017-10-13T21:57:25.799Z,95950.92
2017-10-13T21:59:54.198Z,95948.72
2017-10-13T22:02:22.580Z,95943.70
2017-10-13T22:04:56.484Z,95946.14
2017-10-13T22:07:24.888Z,95945.30
2017-10-13T22:09:53.247Z,95952.53
2017-10-13T22:12:21.758Z,95951.16
2017-10-13T22:14:50.103Z,95953.74
2017-10-13T22:17:18.503Z,95954.24
2017-10-13T22:19:46.852Z,95949.63
2017-10-13T22:22:15.235Z,95943.77
2017-10-13T22:24:43.596Z,95945.55
2017-10-13T22:27:11.955Z,95943.81
2017-10-13T22:29:40.312Z,95945.67
2017-10-13T22:32:08.672Z,95947.36
2017-10-13T22:34:37.057Z,95947.08
2017-10-13T22:37:05.463Z,95942.77
2017-10-13T22:39:33.827Z,95941.51
2017-10-13T22:42:03.011Z,95947.42
2017-10-13T22:44:31.399Z,95952.00
2017-10-13T22:46:59.886Z,95942.50
2017-10-13T22:49:28.268Z,95946.98
2017-10-13T22:51:56.637Z,95942.04
2017-10-13T22:54:25.023Z,95944.19
2017-10-13T22:56:53.407Z,95953.63
2017-10-13T22:59:21.784Z,95958.48
2017-10-13T23:01:50.146Z,95956.54
2017-10-13T23:04:18.499Z,95958.72
2017-10-13T23:06:46.855Z,95965.56
2017-10-13T23:09:15.239Z,95964.22
2017-10-13T23:11:43.632Z,95969.08
2017-10-13T23:14:12.020Z,95966.70
2017-10-13T23:16:40.374Z,95971.18
2017-10-13T23:19:08.767Z,95968.27
2017-10-13T23:21:37.129Z,95966.97
2017-10-13T23:24:05.516Z,95968.27
2017-10-13T23:26:33.872Z,95972.12
2017-10-13T23:29:02.511Z,95976.41
2017-10-13T23:31:30.870Z,95969.12
2017-10-13T23:33:59.263Z,95970.55
2017-10-13T23:36:27.619Z,95970.56
2017-10-13T23:38:55.980Z,95968.77
2017-10-13T23:41:24.336Z,95975.30
2017-10-13T23:43:52.691Z,95974.20
2017-10-13T23:46:21.079Z,95981.02
2017-10-13T23:48:49.439Z,95975.95
2017-10-13T23:51:17.800Z,95981.82
2017-10-13T23:53:46.188Z,95971.98
2017-10-13T23:56:14.575Z,95971.64
2017-10-13T23:58:43.269Z,95974.06
